Time;durP1;ratioP1;P1;durP2;ratioP2;P2;SDS_P1;SDS_P2;PMS_P1;PMS_P2;Temp;Humidity;BMP_temperature;BMP_pressure;BME280_temperature;BME280_humidity;BME280_pressure;Samples;Min_cycle;Max_cycle;Signal;HPM_P1;HPM_P2
2024/01/20 00:01:16;;;;;;;2.17;2.00;;;-6.40;1.00;;;;;;5059632;28;20048;-76
2024/01/20 00:03:43;;;;;;;2.72;1.95;;;-6.50;1.00;;;;;;5061745;28;20479;-77
2024/01/20 00:06:09;;;;;;;3.13;2.92;;;-6.50;99.90;;;;;;5060081;28;20045;-76
2024/01/20 00:08:36;;;;;;;5.22;2.72;;;-6.50;99.90;;;;;;5060437;28;20055;-77
2024/01/20 00:11:02;;;;;;;8.35;4.45;;;-6.60;99.90;;;;;;5059531;28;20366;-76
2024/01/20 00:13:29;;;;;;;1.67;0.95;;;-6.60;99.90;;;;;;5063829;28;20037;-76
2024/01/20 00:15:55;;;;;;;1.38;1.35;;;-6.50;99.90;;;;;;5063225;28;20032;-75
2024/01/20 00:18:21;;;;;;;2.00;1.85;;;-6.50;1.00;;;;;;5059664;28;20036;-76
2024/01/20 00:20:50;;;;;;;5.57;2.50;;;-6.50;1.00;;;;;;5057177;28;20033;-76
2024/01/20 00:23:16;;;;;;;2.13;2.03;;;-6.60;99.90;;;;;;5057418;28;20045;-76
2024/01/20 00:25:43;;;;;;;1.02;1.02;;;-6.60;99.90;;;;;;5060913;28;20037;-76
2024/01/20 00:28:09;;;;;;;1.45;1.35;;;-6.60;99.90;;;;;;5064017;28;20083;-73
2024/01/20 00:30:35;;;;;;;7.43;1.33;;;-6.70;99.90;;;;;;5059695;28;20453;-77
2024/01/20 00:33:02;;;;;;;3.42;3.17;;;-6.70;99.90;;;;;;5058469;28;20033;-76
2024/01/20 00:35:28;;;;;;;0.32;0.32;;;-6.70;99.90;;;;;;5056419;28;20036;-76
2024/01/20 00:37:55;;;;;;;17.83;4.25;;;-6.70;99.90;;;;;;5059861;28;20044;-75
2024/01/20 00:40:21;;;;;;;5.13;3.97;;;-6.80;99.90;;;;;;5060634;28;20037;-75
2024/01/20 00:42:48;;;;;;;5.93;1.75;;;-6.70;99.90;;;;;;5060775;28;20024;-74
2024/01/20 00:45:14;;;;;;;0.63;0.63;;;-6.60;99.90;;;;;;5061317;28;20235;-76
2024/01/20 00:47:40;;;;;;;2.83;2.58;;;-6.70;99.90;;;;;;5062927;28;20028;-76
2024/01/20 00:50:07;;;;;;;2.22;2.13;;;-6.80;99.90;;;;;;5066287;28;20484;-76
2024/01/20 00:52:33;;;;;;;2.45;2.30;;;-6.90;99.90;;;;;;5064684;28;20458;-76
2024/01/20 00:54:59;;;;;;;0.57;0.57;;;-7.00;99.90;;;;;;5059809;28;20040;-76
2024/01/20 00:57:25;;;;;;;3.80;3.60;;;-7.00;99.90;;;;;;5060291;28;20024;-74
2024/01/20 00:59:51;;;;;;;2.50;2.30;;;-7.00;99.90;;;;;;5058538;28;20190;-74
2024/01/20 01:02:18;;;;;;;2.97;2.78;;;-6.90;99.90;;;;;;5057964;28;20100;-74
2024/01/20 01:04:45;;;;;;;2.05;1.95;;;-6.80;99.90;;;;;;5060896;28;20029;-74
2024/01/20 01:07:11;;;;;;;1.95;1.48;;;-6.80;99.90;;;;;;5064215;28;20033;-75
2024/01/20 01:09:37;;;;;;;9.38;3.72;;;-6.90;99.90;;;;;;5059336;28;20041;-74
2024/01/20 01:12:04;;;;;;;2.03;1.92;;;-7.00;99.90;;;;;;5056417;28;20037;-74
2024/01/20 01:14:30;;;;;;;9.35;2.55;;;-7.10;99.90;;;;;;5059697;28;20029;-75
2024/01/20 01:16:56;;;;;;;4.15;3.78;;;-7.10;99.90;;;;;;5056443;28;20029;-74
2024/01/20 01:19:23;;;;;;;2.00;1.85;;;-7.20;99.90;;;;;;5062997;28;20040;-74
2024/01/20 01:21:49;;;;;;;2.90;2.05;;;-7.20;99.90;;;;;;5060111;28;20377;-75
2024/01/20 01:24:15;;;;;;;1.88;1.77;;;-7.30;99.90;;;;;;5063355;28;20033;-75
2024/01/20 01:26:41;;;;;;;2.58;2.22;;;-7.30;99.90;;;;;;5055882;28;20036;-76
2024/01/20 01:29:07;;;;;;;2.47;2.33;;;-7.30;99.90;;;;;;5062195;28;20499;-75
2024/01/20 01:31:33;;;;;;;3.40;1.23;;;-7.30;99.90;;;;;;5059655;28;20035;-75
2024/01/20 01:34:00;;;;;;;2.20;2.10;;;-7.30;99.90;;;;;;5057929;28;20079;-75
2024/01/20 01:36:26;;;;;;;2.28;2.13;;;-7.30;99.90;;;;;;5055141;28;20033;-75
2024/01/20 01:38:55;;;;;;;5.57;2.33;;;-7.40;99.90;;;;;;5061936;28;20045;-75
2024/01/20 01:41:21;;;;;;;1.10;1.10;;;-7.40;99.90;;;;;;5057688;28;20454;-76
2024/01/20 01:43:47;;;;;;;4.20;3.90;;;-7.50;99.90;;;;;;5059906;28;20051;-76
2024/01/20 01:46:14;;;;;;;0.82;0.82;;;-7.60;99.90;;;;;;5056075;28;20029;-76
2024/01/20 01:48:40;;;;;;;4.13;3.72;;;-7.60;99.90;;;;;;5062537;28;20039;-76
2024/01/20 01:51:06;;;;;;;2.65;2.50;;;-7.70;99.90;;;;;;5059501;28;20033;-75
2024/01/20 01:53:33;;;;;;;7.47;3.92;;;-7.80;99.90;;;;;;5060092;28;20524;-76
2024/01/20 01:56:03;;;;;;;0.95;0.85;;;-7.90;99.90;;;;;;5055469;28;20033;-72
2024/01/20 01:58:29;;;;;;;0.85;0.85;;;-7.90;99.90;;;;;;5055600;28;20037;-75
2024/01/20 02:00:55;;;;;;;3.03;2.55;;;-8.00;99.90;;;;;;5063760;28;20033;-75
2024/01/20 02:03:22;;;;;;;2.75;1.98;;;-8.00;99.90;;;;;;5060263;28;20033;-74
2024/01/20 02:05:48;;;;;;;3.45;3.15;;;-8.10;99.90;;;;;;5058080;28;20029;-73
2024/01/20 02:08:14;;;;;;;3.08;2.88;;;-8.10;99.90;;;;;;5056166;28;20037;-75
2024/01/20 02:10:43;;;;;;;0.73;0.73;;;-8.10;99.90;;;;;;5062471;28;20441;-75
2024/01/20 02:13:13;;;;;;;1.80;1.70;;;-8.20;99.90;;;;;;5058988;28;20025;-75
2024/01/20 02:15:40;;;;;;;2.25;2.15;;;-8.20;99.90;;;;;;5058041;28;20040;-75
2024/01/20 02:18:06;;;;;;;1.20;1.05;;;-8.20;99.90;;;;;;5056170;28;20040;-74
2024/01/20 02:20:32;;;;;;;3.03;2.80;;;-8.30;99.90;;;;;;5060015;28;20044;-74
2024/01/20 02:22:58;;;;;;;3.63;2.47;;;-8.30;99.90;;;;;;5062285;28;20044;-75
2024/01/20 02:25:25;;;;;;;0.73;0.47;;;-8.30;99.90;;;;;;5059025;28;20037;-74
2024/01/20 02:27:51;;;;;;;0.95;0.95;;;-8.30;99.90;;;;;;5059022;28;20039;-74
2024/01/20 02:30:17;;;;;;;2.63;1.58;;;-8.40;99.90;;;;;;5060699;28;20036;-75
2024/01/20 02:32:43;;;;;;;2.17;1.95;;;-8.40;99.90;;;;;;5063576;28;20043;-75
2024/01/20 02:35:10;;;;;;;3.08;1.65;;;-8.40;99.90;;;;;;5057957;28;20036;-74
2024/01/20 02:37:36;;;;;;;1.88;1.77;;;-8.50;96.40;;;;;;5057965;28;20528;-74
2024/01/20 02:40:03;;;;;;;1.50;1.40;;;-8.50;95.30;;;;;;5055791;28;20053;-74
2024/01/20 02:42:29;;;;;;;1.05;1.05;;;-8.50;97.50;;;;;;5060944;28;20089;-75
2024/01/20 02:44:55;;;;;;;1.27;0.98;;;-8.50;99.90;;;;;;5060208;28;20040;-74
2024/01/20 02:47:21;;;;;;;1.75;1.65;;;-8.50;99.90;;;;;;5056086;28;20036;-74
2024/01/20 02:49:47;;;;;;;2.20;2.08;;;-8.40;99.90;;;;;;5056959;28;20053;-74
2024/01/20 02:52:13;;;;;;;1.30;1.20;;;-8.50;99.90;;;;;;5059210;28;20033;-76
2024/01/20 02:54:40;;;;;;;2.30;1.73;;;-8.50;99.90;;;;;;5063615;28;20363;-76
2024/01/20 02:57:06;;;;;;;4.07;1.52;;;-8.50;99.90;;;;;;5062380;28;20048;-75
2024/01/20 02:59:32;;;;;;;1.85;1.75;;;-8.50;99.90;;;;;;5061278;28;20470;-77
2024/01/20 03:02:01;;;;;;;4.88;1.23;;;-8.60;99.90;;;;;;5062870;28;20386;-76
2024/01/20 03:04:28;;;;;;;0.10;0.10;;;-8.60;99.90;;;;;;5065883;28;20028;-76
2024/01/20 03:06:54;;;;;;;0.60;0.60;;;-8.60;99.90;;;;;;5062739;28;20052;-76
2024/01/20 03:09:20;;;;;;;1.45;1.35;;;-8.70;96.10;;;;;;5060222;28;20053;-76
2024/01/20 03:11:46;;;;;;;2.35;1.92;;;-8.70;91.10;;;;;;5059541;28;20032;-75
2024/01/20 03:14:13;;;;;;;1.63;0.93;;;-8.70;90.40;;;;;;5060366;28;20041;-75
2024/01/20 03:16:39;;;;;;;2.13;1.98;;;-8.70;88.70;;;;;;5065443;28;20037;-76
2024/01/20 03:19:06;;;;;;;2.35;2.20;;;-8.70;87.70;;;;;;5062482;28;20040;-75
2024/01/20 03:21:33;;;;;;;4.10;1.83;;;-8.80;80.10;;;;;;5058986;28;20393;-75
2024/01/20 03:24:00;;;;;;;1.87;1.73;;;-8.80;68.80;;;;;;5062279;28;20065;-75
2024/01/20 03:26:26;;;;;;;0.73;0.73;;;-8.90;59.20;;;;;;5071723;28;20036;-75
2024/01/20 03:28:52;;;;;;;2.00;1.53;;;-9.00;46.50;;;;;;5062696;28;20400;-75
2024/01/20 03:31:18;;;;;;;6.20;3.15;;;-9.00;36.50;;;;;;5063951;28;20029;-75
2024/01/20 03:33:44;;;;;;;2.10;2.00;;;-9.10;31.30;;;;;;5065262;28;20037;-74
2024/01/20 03:36:11;;;;;;;1.73;1.63;;;-9.10;28.50;;;;;;5058282;28;20422;-74
2024/01/20 03:38:37;;;;;;;2.80;2.33;;;-9.10;34.40;;;;;;5056987;28;20053;-75
2024/01/20 03:41:03;;;;;;;0.70;0.70;;;-9.20;25.20;;;;;;5059701;28;20039;-74
2024/01/20 03:43:29;;;;;;;0.40;0.40;;;-9.30;19.90;;;;;;5048206;28;20040;-74
2024/01/20 03:45:56;;;;;;;0.23;0.23;;;-9.30;19.60;;;;;;5065356;28;20040;-74
2024/01/20 03:48:22;;;;;;;0.67;0.67;;;-9.30;20.20;;;;;;5064687;28;20403;-74
2024/01/20 03:50:48;;;;;;;3.07;2.87;;;-9.40;8.80;;;;;;5065815;28;20052;-75
2024/01/20 03:53:14;;;;;;;1.50;1.20;;;-9.40;8.30;;;;;;5056721;28;20047;-74
2024/01/20 03:55:40;;;;;;;1.80;1.70;;;-9.40;21.50;;;;;;5061225;28;20044;-74
2024/01/20 03:58:06;;;;;;;1.40;1.40;;;-9.40;24.20;;;;;;5059458;28;20115;-74
2024/01/20 04:00:32;;;;;;;2.60;2.47;;;-9.50;8.30;;;;;;5075486;28;20048;-74
2024/01/20 04:02:59;;;;;;;1.73;1.63;;;-9.60;1.00;;;;;;5059912;28;20037;-74
2024/01/20 04:05:25;;;;;;;6.17;1.40;;;-9.70;1.00;;;;;;5057984;28;20037;-74
2024/01/20 04:07:51;;;;;;;0.77;0.77;;;-9.70;1.00;;;;;;5060144;28;20033;-75
2024/01/20 04:10:17;;;;;;;2.70;2.47;;;-9.70;1.00;;;;;;5059329;28;20048;-75
2024/01/20 04:12:44;;;;;;;0.10;0.10;;;-9.80;1.00;;;;;;5059367;28;20040;-75
2024/01/20 04:15:10;;;;;;;2.20;2.10;;;-9.80;1.00;;;;;;5059237;28;20037;-74
2024/01/20 04:17:36;;;;;;;0.50;0.50;;;-9.80;1.00;;;;;;5060886;28;20032;-75
2024/01/20 04:20:04;;;;;;;1.17;1.07;;;-9.90;1.00;;;;;;5063908;28;20053;-76
2024/01/20 04:22:30;;;;;;;0.37;0.37;;;-10.00;1.00;;;;;;5062815;28;20029;-76
2024/01/20 04:24:57;;;;;;;0.40;0.40;;;-10.00;1.00;;;;;;5072403;28;20029;-76
2024/01/20 04:27:23;;;;;;;0.47;0.47;;;-10.00;1.00;;;;;;5059280;28;20025;-76
2024/01/20 04:29:49;;;;;;;0.93;0.93;;;-10.10;1.00;;;;;;5059654;28;20485;-76
2024/01/20 04:32:15;;;;;;;0.63;0.63;;;-10.10;1.00;;;;;;5057739;28;20036;-76
2024/01/20 04:34:41;;;;;;;0.67;0.67;;;-10.10;1.00;;;;;;5062659;28;20033;-77
2024/01/20 04:37:07;;;;;;;8.20;2.30;;;-10.20;1.00;;;;;;5059232;28;20049;-75
2024/01/20 04:39:34;;;;;;;1.10;1.10;;;-10.10;1.00;;;;;;5057786;28;20044;-76
2024/01/20 04:42:00;;;;;;;0.93;0.93;;;-10.10;1.00;;;;;;5063005;28;20041;-76
2024/01/20 04:44:26;;;;;;;2.33;2.23;;;-9.90;1.00;;;;;;5060296;28;20020;-75
2024/01/20 04:46:52;;;;;;;1.30;1.30;;;-9.80;1.70;;;;;;5060348;28;20055;-76
2024/01/20 04:49:18;;;;;;;0.10;0.10;;;-9.80;11.40;;;;;;5059934;28;20049;-76
2024/01/20 04:51:46;;;;;;;2.43;0.70;;;-9.70;23.70;;;;;;5062246;28;20040;-76
2024/01/20 04:54:12;;;;;;;0.67;0.67;;;-9.70;33.60;;;;;;5060604;28;20033;-75
2024/01/20 04:56:38;;;;;;;0.73;0.73;;;-9.60;43.20;;;;;;5064937;28;20028;-76
2024/01/20 04:59:04;;;;;;;0.97;0.97;;;-9.70;46.20;;;;;;5058332;28;20500;-76
2024/01/20 05:01:30;;;;;;;3.33;1.73;;;-9.70;43.00;;;;;;5061703;28;20051;-76
2024/01/20 05:03:58;;;;;;;1.90;1.03;;;-9.80;27.70;;;;;;5058829;28;20043;-76
2024/01/20 05:06:24;;;;;;;1.80;1.70;;;-9.90;19.90;;;;;;5058534;28;20043;-76
2024/01/20 05:08:50;;;;;;;4.10;1.63;;;-10.00;9.60;;;;;;5059789;28;20037;-76
2024/01/20 05:11:16;;;;;;;0.33;0.33;;;-10.00;7.50;;;;;;5058381;28;20044;-75
2024/01/20 05:13:42;;;;;;;2.43;1.50;;;-10.10;2.70;;;;;;5052318;28;20129;-75
2024/01/20 05:16:09;;;;;;;0.20;0.20;;;-10.20;1.00;;;;;;5056921;28;20033;-75
2024/01/20 05:18:36;;;;;;;1.30;1.10;;;-10.20;1.00;;;;;;5059060;28;20029;-76
2024/01/20 05:21:02;;;;;;;0.23;0.23;;;-10.20;1.00;;;;;;5063509;28;20040;-76
2024/01/20 05:23:28;;;;;;;0.77;0.77;;;-10.20;1.00;;;;;;5061468;28;20044;-76
2024/01/20 05:25:54;;;;;;;0.10;0.10;;;-10.10;6.30;;;;;;5058944;28;20032;-76
2024/01/20 05:28:20;;;;;;;0.77;0.77;;;-10.10;12.40;;;;;;5057505;28;20033;-76
2024/01/20 05:30:46;;;;;;;0.47;0.47;;;-10.10;12.60;;;;;;5057096;28;20048;-77
2024/01/20 05:33:12;;;;;;;2.00;1.70;;;-10.20;1.00;;;;;;5055273;28;20041;-75
2024/01/20 05:35:39;;;;;;;3.33;3.03;;;-10.30;1.00;;;;;;5061076;28;20036;-76
2024/01/20 05:38:05;;;;;;;1.80;0.93;;;-10.40;1.00;;;;;;5058401;28;20355;-75
2024/01/20 05:40:31;;;;;;;3.17;1.33;;;-10.40;1.00;;;;;;5059654;28;20402;-76
2024/01/20 05:42:57;;;;;;;6.13;4.67;;;-10.40;1.00;;;;;;5059350;28;20036;-75
2024/01/20 05:45:23;;;;;;;1.43;1.23;;;-10.50;1.00;;;;;;5060670;28;20025;-76
2024/01/20 05:47:49;;;;;;;2.33;2.03;;;-10.50;1.00;;;;;;5047904;28;20048;-75
2024/01/20 05:50:16;;;;;;;1.70;1.60;;;-10.40;1.00;;;;;;5062737;28;20060;-76
2024/01/20 05:52:42;;;;;;;0.63;0.63;;;-10.50;1.00;;;;;;5064920;28;20028;-75
2024/01/20 05:55:08;;;;;;;2.73;2.53;;;-10.50;1.00;;;;;;5055520;28;20037;-74
2024/01/20 05:57:34;;;;;;;2.70;1.60;;;-10.50;1.00;;;;;;5062128;28;20047;-75
2024/01/20 06:00:00;;;;;;;0.37;0.37;;;-10.50;1.00;;;;;;5061953;28;20033;-76
2024/01/20 06:02:27;;;;;;;0.10;0.10;;;-10.50;1.00;;;;;;5063385;28;20521;-76
2024/01/20 06:04:53;;;;;;;2.47;1.63;;;-10.50;1.00;;;;;;5054323;28;20469;-76
2024/01/20 06:07:19;;;;;;;0.57;0.57;;;-10.50;1.00;;;;;;5056957;28;20386;-76
2024/01/20 06:09:45;;;;;;;0.30;0.30;;;-10.50;1.00;;;;;;5076318;28;20370;-76
2024/01/20 06:12:12;;;;;;;2.13;2.03;;;-10.60;1.00;;;;;;5058925;28;20040;-75
2024/01/20 06:14:39;;;;;;;0.77;0.77;;;-10.60;1.00;;;;;;5051909;28;20051;-75
2024/01/20 06:17:05;;;;;;;0.20;0.20;;;-10.80;1.00;;;;;;5051568;28;20025;-75
2024/01/20 06:19:32;;;;;;;0.20;0.20;;;-10.90;1.00;;;;;;5056577;28;20041;-75
2024/01/20 06:21:58;;;;;;;0.30;0.30;;;-11.10;1.00;;;;;;5046105;28;20279;-76
2024/01/20 06:24:24;;;;;;;4.63;1.97;;;-11.20;1.00;;;;;;5047498;28;20525;-75
2024/01/20 06:26:50;;;;;;;1.47;1.43;;;-11.30;1.00;;;;;;5058592;28;20524;-74
2024/01/20 06:29:16;;;;;;;1.50;1.50;;;-11.40;1.00;;;;;;5064712;28;20032;-74
2024/01/20 06:31:42;;;;;;;0.70;0.70;;;-11.50;1.00;;;;;;5067992;28;20036;-75
2024/01/20 06:34:08;;;;;;;1.30;1.30;;;-11.60;1.00;;;;;;5072071;28;20036;-74
2024/01/20 06:36:35;;;;;;;0.20;0.20;;;-11.60;1.00;;;;;;5062756;28;20029;-74
2024/01/20 06:39:01;;;;;;;0.83;0.83;;;-11.60;1.00;;;;;;5061063;28;20041;-75
2024/01/20 06:41:27;;;;;;;0.10;0.10;;;-11.60;1.00;;;;;;5062167;28;20201;-75
2024/01/20 06:43:53;;;;;;;0.10;0.10;;;-11.50;1.00;;;;;;5068707;28;20052;-75
2024/01/20 06:46:19;;;;;;;4.17;3.60;;;-11.50;1.00;;;;;;5063262;28;20036;-75
2024/01/20 06:48:45;;;;;;;1.77;1.67;;;-11.60;1.00;;;;;;5058390;28;20460;-75
2024/01/20 06:51:14;;;;;;;0.83;0.83;;;-11.60;1.00;;;;;;5064946;28;20032;-75
2024/01/20 06:53:42;;;;;;;0.23;0.23;;;-11.60;1.00;;;;;;5061986;28;20032;-75
2024/01/20 06:56:08;;;;;;;0.57;0.53;;;-11.60;1.00;;;;;;5060946;28;20025;-74
2024/01/20 06:58:35;;;;;;;1.67;1.57;;;-11.60;1.00;;;;;;5062152;28;20024;-74
2024/01/20 07:01:01;;;;;;;0.30;0.30;;;-11.60;1.00;;;;;;5068168;28;20043;-74
2024/01/20 07:03:27;;;;;;;0.50;0.50;;;-11.70;1.00;;;;;;5066960;28;20032;-74
2024/01/20 07:05:53;;;;;;;0.77;0.77;;;-11.70;1.00;;;;;;5067152;28;20033;-73
2024/01/20 07:08:19;;;;;;;1.97;1.87;;;-11.70;1.00;;;;;;5068220;28;20053;-74
2024/01/20 07:10:45;;;;;;;0.20;0.20;;;-11.60;1.00;;;;;;5067928;28;20044;-74
2024/01/20 07:13:12;;;;;;;0.10;0.10;;;-11.60;1.00;;;;;;5062706;28;20028;-74
2024/01/20 07:15:38;;;;;;;0.70;0.70;;;-11.50;1.00;;;;;;5066440;28;20029;-74
2024/01/20 07:18:04;;;;;;;0.87;0.87;;;-11.40;1.00;;;;;;5061562;28;20044;-74
2024/01/20 07:20:30;;;;;;;0.87;0.87;;;-11.30;1.00;;;;;;5061424;28;20103;-73
2024/01/20 07:22:56;;;;;;;0.53;0.53;;;-11.30;1.00;;;;;;5071382;28;20465;-74
2024/01/20 07:25:23;;;;;;;0.10;0.10;;;-11.40;1.00;;;;;;5070784;28;20033;-74
2024/01/20 07:27:50;;;;;;;0.20;0.20;;;-11.50;1.00;;;;;;5067264;28;20046;-73
2024/01/20 07:30:16;;;;;;;4.00;2.27;;;-11.50;1.00;;;;;;5063161;28;20037;-74
2024/01/20 07:32:42;;;;;;;0.00;0.00;;;-11.60;1.00;;;;;;5062069;28;20056;-77
2024/01/20 07:35:09;;;;;;;1.20;1.10;;;-11.60;1.00;;;;;;5062216;28;20044;-74
2024/01/20 07:37:39;;;;;;;5.97;2.93;;;-11.60;1.00;;;;;;5066011;28;20045;-74
2024/01/20 07:40:06;;;;;;;0.40;0.40;;;-11.60;1.00;;;;;;5063356;28;20041;-74
2024/01/20 07:42:34;;;;;;;7.53;3.63;;;-11.50;1.00;;;;;;5073000;28;20458;-73
2024/01/20 07:45:02;;;;;;;0.67;0.63;;;-11.50;1.00;;;;;;5061050;28;20029;-74
2024/01/20 07:47:28;;;;;;;0.10;0.10;;;-11.50;1.00;;;;;;5058460;28;20033;-74
2024/01/20 07:49:54;;;;;;;0.50;0.50;;;-11.40;1.00;;;;;;5055934;28;20047;-75
2024/01/20 07:52:20;;;;;;;0.30;0.30;;;-11.30;1.00;;;;;;5066526;28;20041;-75
2024/01/20 07:54:46;;;;;;;1.77;1.47;;;-11.30;1.00;;;;;;5069959;28;20028;-75
2024/01/20 07:57:13;;;;;;;0.90;0.90;;;-11.20;1.00;;;;;;5064630;28;20386;-75
2024/01/20 07:59:39;;;;;;;1.60;1.50;;;-11.10;1.00;;;;;;5063402;28;20055;-75
2024/01/20 08:02:05;;;;;;;0.47;0.47;;;-11.00;1.00;;;;;;5057766;28;20279;-75
2024/01/20 08:04:32;;;;;;;1.80;1.60;;;-10.80;1.00;;;;;;5059846;28;20033;-73
2024/01/20 08:06:58;;;;;;;1.47;1.37;;;-10.60;1.00;;;;;;5059717;28;20036;-72
2024/01/20 08:09:25;;;;;;;3.03;2.83;;;-10.40;1.00;;;;;;5058157;28;20029;-75
2024/01/20 08:11:51;;;;;;;4.73;3.13;;;-10.20;1.00;;;;;;5054098;28;20462;-75
2024/01/20 08:14:17;;;;;;;1.30;1.23;;;-10.00;1.00;;;;;;5064757;28;20032;-74
2024/01/20 08:16:43;;;;;;;1.40;1.40;;;-9.80;11.40;;;;;;5064680;28;20039;-73
2024/01/20 08:19:09;;;;;;;2.13;2.03;;;-9.60;25.80;;;;;;5062439;28;20032;-75
2024/01/20 08:21:35;;;;;;;1.43;0.47;;;-9.40;39.00;;;;;;5055622;28;20036;-75
2024/01/20 08:24:02;;;;;;;1.43;1.37;;;-9.30;33.40;;;;;;5066041;28;20040;-75
2024/01/20 08:26:32;;;;;;;4.13;1.87;;;-9.30;22.10;;;;;;5066017;28;20039;-74
2024/01/20 08:28:59;;;;;;;3.63;3.33;;;-9.20;28.40;;;;;;5064462;28;20029;-74
2024/01/20 08:31:25;;;;;;;2.53;2.42;;;-9.00;39.30;;;;;;5068107;28;20067;-73
2024/01/20 08:33:52;;;;;;;0.93;0.60;;;-9.10;26.20;;;;;;5076837;28;20035;-74
2024/01/20 08:36:20;;;;;;;2.37;2.10;;;-9.10;14.00;;;;;;5069068;28;20025;-73
2024/01/20 08:38:47;;;;;;;2.60;2.50;;;-9.10;22.30;;;;;;5062065;28;20512;-75
2024/01/20 08:41:13;;;;;;;8.73;5.40;;;-9.00;37.30;;;;;;5059573;28;20136;-74
2024/01/20 08:43:43;;;;;;;1.63;1.53;;;-8.80;56.90;;;;;;5070060;28;20031;-74
2024/01/20 08:46:10;;;;;;;4.72;3.90;;;-8.60;79.00;;;;;;5070057;28;20461;-74
2024/01/20 08:48:37;;;;;;;3.67;3.45;;;-8.40;94.20;;;;;;5064845;28;20021;-73
2024/01/20 08:51:03;;;;;;;2.30;2.10;;;-8.20;99.90;;;;;;5060083;28;20037;-74
2024/01/20 08:53:30;;;;;;;4.10;2.95;;;-8.00;99.90;;;;;;5054370;28;20048;-73
2024/01/20 08:55:56;;;;;;;1.70;1.60;;;-7.80;99.90;;;;;;5063219;28;20039;-74
2024/01/20 08:58:22;;;;;;;5.50;3.72;;;-7.70;99.90;;;;;;5066770;28;20036;-74
2024/01/20 09:00:49;;;;;;;1.38;1.25;;;-7.50;99.90;;;;;;5062068;28;20040;-74
2024/01/20 09:03:16;;;;;;;1.27;1.17;;;-7.50;99.90;;;;;;5058876;28;20033;-72
2024/01/20 09:05:42;;;;;;;2.97;2.55;;;-7.40;99.90;;;;;;5057877;28;20032;-74
2024/01/20 09:08:09;;;;;;;1.52;1.48;;;-7.30;99.90;;;;;;5062344;28;20047;-74
2024/01/20 09:10:36;;;;;;;3.08;2.88;;;-7.20;99.90;;;;;;5059280;28;20036;-74
2024/01/20 09:13:03;;;;;;;1.02;1.02;;;-7.00;99.90;;;;;;5058626;28;20405;-74
2024/01/20 09:15:30;;;;;;;4.60;2.85;;;-7.10;99.90;;;;;;5059760;28;20025;-74
2024/01/20 09:17:56;;;;;;;1.73;1.63;;;-7.10;99.90;;;;;;5062218;28;20036;-74
2024/01/20 09:20:23;;;;;;;6.28;2.05;;;-7.20;99.90;;;;;;5061367;28;20477;-75
2024/01/20 09:22:49;;;;;;;3.28;2.38;;;-7.20;99.90;;;;;;5057713;28;20382;-74
2024/01/20 09:25:16;;;;;;;10.07;5.30;;;-7.10;99.90;;;;;;5059421;28;20040;-73
2024/01/20 09:27:43;;;;;;;2.55;2.17;;;-6.90;99.90;;;;;;5056759;28;20039;-74
2024/01/20 09:30:10;;;;;;;1.60;1.48;;;-6.60;99.90;;;;;;5066554;28;20059;-74
2024/01/20 09:32:36;;;;;;;2.47;2.38;;;-6.60;99.90;;;;;;5061422;28;20052;-72
2024/01/20 09:35:03;;;;;;;16.20;3.55;;;-6.50;99.90;;;;;;5056398;28;20035;-73
2024/01/20 09:37:29;;;;;;;5.15;3.10;;;-6.40;99.90;;;;;;5053423;28;20492;-73
2024/01/20 09:39:57;;;;;;;4.32;3.97;;;-6.30;99.90;;;;;;5068172;28;20055;-73
2024/01/20 09:42:23;;;;;;;0.45;0.45;;;-6.20;99.90;;;;;;5063469;28;20446;-74
2024/01/20 09:44:50;;;;;;;5.22;4.78;;;-6.10;99.90;;;;;;5058655;28;20038;-73
2024/01/20 09:47:18;;;;;;;4.88;3.17;;;-6.10;99.90;;;;;;5055333;28;20029;-73
2024/01/20 09:49:45;;;;;;;8.02;4.22;;;-6.10;99.90;;;;;;5060601;28;20062;-73
2024/01/20 09:52:24;;;;;;;4.05;2.80;;;-6.00;99.90;;;;;;5065978;28;20048;-73
2024/01/20 09:55:15;;;;;;;2.55;2.35;;;-5.90;99.90;;;;;;5061253;28;20055;-73
2024/01/20 09:57:42;;;;;;;7.38;3.63;;;-5.90;99.90;;;;;;5057905;28;20025;-73
2024/01/20 10:00:09;;;;;;;13.60;4.95;;;-5.80;99.90;;;;;;5060866;28;20397;-74
2024/01/20 10:02:39;;;;;;;3.03;2.50;;;-5.70;99.90;;;;;;5065444;28;20028;-73
2024/01/20 10:05:09;;;;;;;8.75;7.30;;;-5.50;99.90;;;;;;5061410;28;20032;-73
2024/01/20 10:07:35;;;;;;;4.40;4.00;;;-5.40;99.90;;;;;;5063973;28;20480;-73
2024/01/20 10:10:02;;;;;;;3.38;3.08;;;-5.40;99.90;;;;;;5069720;28;20036;-73
2024/01/20 10:12:28;;;;;;;1.67;1.58;;;-5.40;99.90;;;;;;5070941;28;20052;-73
2024/01/20 10:14:55;;;;;;;2.55;2.42;;;-5.40;99.90;;;;;;5064766;28;20039;-73
2024/01/20 10:17:21;;;;;;;5.75;4.10;;;-5.30;99.90;;;;;;5057806;28;20513;-74
2024/01/20 10:19:47;;;;;;;8.30;3.80;;;-5.10;99.90;;;;;;5054499;28;20040;-73
2024/01/20 10:22:14;;;;;;;11.10;4.13;;;-4.90;99.90;;;;;;5061570;28;20500;-73
2024/01/20 10:24:50;;;;;;;6.70;2.60;;;-4.70;99.90;;;;;;5065011;28;20032;-74
2024/01/20 10:27:21;;;;;;;3.17;2.97;;;-4.60;99.90;;;;;;5059993;28;20028;-73
2024/01/20 10:29:48;;;;;;;8.38;7.15;;;-4.50;99.90;;;;;;5055576;28;20043;-73
2024/01/20 10:32:15;;;;;;;9.38;5.63;;;-4.30;99.90;;;;;;5059098;28;20037;-73
2024/01/20 10:34:42;;;;;;;6.85;5.95;;;-4.10;99.90;;;;;;5066375;28;20442;-73
2024/01/20 10:37:13;;;;;;;6.38;5.28;;;-3.90;99.90;;;;;;5061690;28;20042;-74
2024/01/20 10:39:42;;;;;;;8.85;6.30;;;-3.80;99.90;;;;;;5056431;28;20051;-75
2024/01/20 10:42:13;;;;;;;5.07;3.08;;;-3.60;99.90;;;;;;5052543;28;20037;-73
2024/01/20 10:44:52;;;;;;;;;;;-3.70;99.90;;;;;;5067607;28;20080;-74
2024/01/20 10:47:29;;;;;;;3.03;2.83;;;-3.90;99.90;;;;;;5061465;28;20365;-73
2024/01/20 10:49:56;;;;;;;4.78;4.47;;;-3.80;99.90;;;;;;5063767;28;20033;-74
2024/01/20 10:52:22;;;;;;;6.10;5.30;;;-3.80;99.90;;;;;;5067492;28;20367;-75
2024/01/20 10:54:50;;;;;;;9.98;4.28;;;-3.50;99.90;;;;;;5068700;28;20050;-74
2024/01/20 10:57:16;;;;;;;8.02;7.15;;;-3.20;99.90;;;;;;5063451;28;20548;-73
2024/01/20 10:59:43;;;;;;;5.32;3.92;;;-3.10;99.90;;;;;;5059133;28;20273;-72
2024/01/20 11:02:10;;;;;;;6.43;5.82;;;-3.00;99.90;;;;;;5054610;28;20505;-72
2024/01/20 11:04:39;;;;;;;4.65;4.32;;;-3.10;99.90;;;;;;5059596;28;20041;-74
2024/01/20 11:07:08;;;;;;;5.18;4.68;;;-3.30;87.00;;;;;;5071052;28;20040;-74
2024/01/20 11:09:35;;;;;;;5.63;5.07;;;-3.40;80.40;;;;;;5062642;28;20045;-73
2024/01/20 11:12:09;;;;;;;7.05;6.45;;;-3.40;91.00;;;;;;5063921;28;20056;-73
2024/01/20 11:14:35;;;;;;;8.20;6.78;;;-3.30;95.30;;;;;;5054762;28;20398;-73
2024/01/20 11:17:14;;;;;;;7.00;6.32;;;-3.20;92.80;;;;;;5071214;28;20081;-73
2024/01/20 11:19:41;;;;;;;7.25;4.68;;;-3.20;57.80;;;;;;5065187;28;20044;-73
2024/01/20 11:22:30;;;;;;;11.13;4.00;;;-3.20;45.90;;;;;;5060719;28;20064;-73
2024/01/20 11:24:56;;;;;;;9.00;8.13;;;-3.00;66.10;;;;;;5069232;28;20401;-73
2024/01/20 11:27:23;;;;;;;5.90;5.45;;;-3.00;94.50;;;;;;5071354;28;20029;-73
2024/01/20 11:29:49;;;;;;;9.15;5.85;;;-2.80;99.90;;;;;;5066062;28;20029;-74
2024/01/20 11:32:15;;;;;;;5.78;5.13;;;-2.70;99.90;;;;;;5061347;28;20150;-74
2024/01/20 11:34:41;;;;;;;4.60;4.20;;;-2.60;99.90;;;;;;5056910;28;20056;-74
2024/01/20 11:37:08;;;;;;;4.93;4.00;;;-2.50;99.90;;;;;;5064794;28;20055;-73
2024/01/20 11:39:34;;;;;;;9.98;2.85;;;-2.60;67.80;;;;;;5063569;28;20394;-74
2024/01/20 11:42:02;;;;;;;13.85;6.20;;;-2.50;50.60;;;;;;5069579;28;20043;-75
2024/01/20 11:44:31;;;;;;;5.88;4.45;;;-2.50;6.50;;;;;;5067576;28;20033;-75
2024/01/20 11:46:59;;;;;;;3.45;2.65;;;-2.40;16.90;;;;;;5072092;28;20020;-73
2024/01/20 11:49:26;;;;;;;8.15;4.57;;;-2.30;51.50;;;;;;5069015;28;20036;-74
2024/01/20 11:51:52;;;;;;;8.15;4.22;;;-2.30;5.90;;;;;;5065129;28;20044;-73
2024/01/20 11:54:19;;;;;;;5.03;4.65;;;-2.20;1.00;;;;;;5061146;28;20041;-73
2024/01/20 11:56:45;;;;;;;5.28;4.85;;;-2.00;19.60;;;;;;5055495;28;20044;-73
2024/01/20 11:59:13;;;;;;;4.30;3.90;;;-1.90;58.90;;;;;;5070002;28;20036;-74
2024/01/20 12:01:39;;;;;;;5.68;5.18;;;-1.80;33.50;;;;;;5065587;28;20044;-74
2024/01/20 12:04:05;;;;;;;7.38;6.68;;;-1.80;13.30;;;;;;5061799;28;20039;-74
2024/01/20 12:06:33;;;;;;;5.32;4.07;;;-1.70;28.60;;;;;;5067907;28;20032;-74
2024/01/20 12:09:00;;;;;;;9.80;6.13;;;-1.60;21.80;;;;;;5063994;28;20029;-74
2024/01/20 12:11:27;;;;;;;21.23;4.47;;;-1.60;5.40;;;;;;5057022;28;20486;-75
2024/01/20 12:13:54;;;;;;;3.10;2.90;;;-1.50;1.00;;;;;;5062399;28;20020;-72
2024/01/20 12:16:21;;;;;;;6.53;4.70;;;-1.60;1.00;;;;;;5067452;28;20059;-73
2024/01/20 12:18:47;;;;;;;8.80;5.43;;;-1.60;1.00;;;;;;5054132;28;20267;-73
2024/01/20 12:21:13;;;;;;;7.90;4.25;;;-1.60;1.00;;;;;;5067056;28;20158;-73
2024/01/20 12:23:40;;;;;;;4.75;4.40;;;-1.40;1.00;;;;;;5064897;28;20033;-73
2024/01/20 12:26:13;;;;;;;3.58;3.13;;;-1.40;1.00;;;;;;5060155;28;20374;-74
2024/01/20 12:28:41;;;;;;;17.25;6.57;;;-1.30;1.00;;;;;;5056097;28;20041;-73
2024/01/20 12:31:08;;;;;;;9.43;6.90;;;-1.40;1.00;;;;;;5066745;28;20059;-73
2024/01/20 12:33:34;;;;;;;8.63;6.75;;;-1.80;1.00;;;;;;5065985;28;20024;-73
2024/01/20 12:36:03;;;;;;;17.25;6.20;;;-2.40;1.00;;;;;;5062651;28;20029;-74
2024/01/20 12:38:29;;;;;;;13.77;6.30;;;-2.30;1.00;;;;;;5056931;28;20060;-75
2024/01/20 12:40:55;;;;;;;6.28;5.68;;;-2.30;1.00;;;;;;5059691;28;20049;-74
2024/01/20 12:43:21;;;;;;;3.95;2.63;;;-2.30;1.00;;;;;;5067437;28;20033;-74
2024/01/20 12:45:48;;;;;;;27.40;6.40;;;-2.20;1.90;;;;;;5062495;28;20035;-73